Terminal Aerodrome Forecast
Issued by NWS

Home | Current Version | Previous Version | Text Only | Print | Product List | Glossary On
Versions: 1 2 3 4 5 6 7 8 9 10 11 12 13 14 15 16 17
000
FTUS46 KSEW 201222 AAA
TAFBFI
TAF AMD
KBFI 201222Z 2012/2112 VRB03KT P6SM VCSH FEW006 BKN025 OVC050
      TEMPO 2012/2016 -SHRA
     FM201800 33006KT P6SM SCT030 BKN050
     FM210400 18006KT P6SM BKN050=

USA.gov is the U.S. government's official web portal to all federal, state and local government web resources and services.